createdAt,value
2022-11-17T00:00:42.784Z,38.13
2022-11-17T00:03:15.767Z,27.43
2022-11-17T00:05:44.449Z,34.80
2022-11-17T00:08:11.415Z,28.17
2022-11-17T00:10:38.245Z,23.83
2022-11-17T00:13:23.946Z,27.40
2022-11-17T00:15:50.832Z,27.33
2022-11-17T00:18:36.266Z,31.87
2022-11-17T00:21:19.709Z,27.57
2022-11-17T00:23:47.620Z,27.73
2022-11-17T00:26:24.768Z,32.27
2022-11-17T00:28:58.170Z,35.57
2022-11-17T00:31:48.706Z,28.47
2022-11-17T00:34:20.656Z,33.30
2022-11-17T00:36:54.090Z,27.27
2022-11-17T00:39:24.042Z,33.57
2022-11-17T00:41:51.020Z,31.30
2022-11-17T00:44:17.972Z,27.83
2022-11-17T00:46:44.970Z,25.67
2022-11-17T00:49:12.718Z,30.13
2022-11-17T00:51:39.565Z,36.37
2022-11-17T00:54:10.988Z,26.07
2022-11-17T00:56:38.112Z,36.30
2022-11-17T00:59:05.199Z,29.43
2022-11-17T01:01:32.579Z,36.20
2022-11-17T01:04:04.498Z,39.10
2022-11-17T01:06:41.348Z,32.70
2022-11-17T01:09:23.662Z,25.67
2022-11-17T01:11:53.336Z,28.87
2022-11-17T01:14:28.326Z,32.67
2022-11-17T01:16:56.117Z,28.20
2022-11-17T01:19:24.463Z,33.80
2022-11-17T01:21:51.343Z,33.27
2022-11-17T01:24:18.790Z,30.43
2022-11-17T01:26:46.942Z,32.33
2022-11-17T01:29:17.289Z,30.73
2022-11-17T01:31:49.917Z,31.07
2022-11-17T01:34:17.292Z,34.60
2022-11-17T01:37:03.621Z,24.80
2022-11-17T01:39:32.036Z,26.60
2022-11-17T01:42:10.980Z,27.00
2022-11-17T01:44:57.393Z,29.23
2022-11-17T01:47:39.368Z,38.07
2022-11-17T01:50:33.484Z,34.90
2022-11-17T01:53:09.920Z,32.57
2022-11-17T01:55:59.471Z,27.30
2022-11-17T01:58:37.612Z,27.73
2022-11-17T02:01:05.078Z,32.73
2022-11-17T02:03:35.428Z,36.33
2022-11-17T02:06:15.434Z,26.60
2022-11-17T02:08:48.476Z,34.43
2022-11-17T02:11:20.855Z,33.43
2022-11-17T02:13:51.702Z,24.77
2022-11-17T02:16:18.577Z,31.20
2022-11-17T02:18:48.341Z,36.57
2022-11-17T02:22:09.535Z,36.50
2022-11-17T02:25:07.091Z,44.20
2022-11-17T02:28:40.476Z,26.10
2022-11-17T02:31:55.068Z,36.67
2022-11-17T02:34:48.309Z,31.23
2022-11-17T02:38:03.876Z,34.00
2022-11-17T02:41:03.021Z,31.70
2022-11-17T02:44:03.609Z,31.30
2022-11-17T02:46:48.952Z,24.17
2022-11-17T02:49:28.864Z,30.63
2022-11-17T02:51:58.992Z,33.17
2022-11-17T02:54:31.631Z,37.80
2022-11-17T02:56:59.133Z,30.50
2022-11-17T02:59:37.128Z,31.77
2022-11-17T03:03:01.252Z,30.63
2022-11-17T03:06:21.440Z,28.60
2022-11-17T03:09:25.972Z,33.30
2022-11-17T03:12:13.874Z,28.87
2022-11-17T03:15:10.892Z,31.53
2022-11-17T03:18:09.184Z,25.67
2022-11-17T03:21:18.320Z,24.20
2022-11-17T03:24:14.308Z,28.00
2022-11-17T03:26:52.236Z,30.97
2022-11-17T03:29:27.172Z,31.00
2022-11-17T03:32:04.444Z,26.00
2022-11-17T03:34:44.076Z,28.33
2022-11-17T03:37:18.706Z,25.60
2022-11-17T03:39:57.244Z,28.10
2022-11-17T03:42:32.010Z,20.77
2022-11-17T03:45:13.871Z,23.90
2022-11-17T03:47:43.453Z,26.77
2022-11-17T03:50:40.383Z,30.80
2022-11-17T03:53:07.409Z,22.33
2022-11-17T03:55:43.904Z,26.10
2022-11-17T03:58:19.535Z,24.53
2022-11-17T04:00:53.264Z,27.87
2022-11-17T04:03:23.297Z,24.10
2022-11-17T04:05:50.192Z,28.10
2022-11-17T04:08:17.109Z,20.50
2022-11-17T04:11:02.623Z,25.07
2022-11-17T04:13:47.999Z,24.90
2022-11-17T04:16:14.876Z,24.50
2022-11-17T04:18:41.748Z,28.67
2022-11-17T04:21:08.616Z,21.97
2022-11-17T04:23:35.915Z,26.63
2022-11-17T04:26:21.862Z,25.53
2022-11-17T04:28:50.932Z,24.30
2022-11-17T04:31:25.884Z,19.97
2022-11-17T04:34:05.708Z,25.90
2022-11-17T04:36:45.644Z,24.00
2022-11-17T04:39:15.791Z,24.57
2022-11-17T04:42:01.908Z,25.93
2022-11-17T04:44:31.963Z,29.27
2022-11-17T04:47:01.931Z,30.47
2022-11-17T04:49:29.159Z,24.97
2022-11-17T04:51:55.993Z,23.70
2022-11-17T04:54:25.111Z,24.13
2022-11-17T04:56:54.830Z,27.17
2022-11-17T04:59:22.857Z,27.60
2022-11-17T05:01:50.452Z,31.77
2022-11-17T05:04:39.659Z,27.97
2022-11-17T05:07:08.951Z,28.90
2022-11-17T05:09:36.209Z,29.90
2022-11-17T05:12:21.980Z,26.47
2022-11-17T05:14:50.069Z,25.67
2022-11-17T05:17:17.778Z,29.97
2022-11-17T05:19:48.682Z,26.23
2022-11-17T05:22:40.929Z,23.93
2022-11-17T05:25:09.490Z,24.40
2022-11-17T05:27:36.762Z,27.33
2022-11-17T05:30:07.605Z,29.13
2022-11-17T05:32:34.586Z,23.83
2022-11-17T05:35:01.731Z,23.73
2022-11-17T05:37:28.600Z,25.40
2022-11-17T05:39:55.623Z,22.87
2022-11-17T05:42:22.472Z,33.73
2022-11-17T05:44:49.369Z,24.60
2022-11-17T05:47:16.237Z,32.70
2022-11-17T05:49:43.158Z,28.27
2022-11-17T05:52:10.158Z,22.20
2022-11-17T05:54:37.023Z,26.97
2022-11-17T05:57:14.549Z,32.10
2022-11-17T05:59:59.443Z,29.80
2022-11-17T06:02:37.837Z,28.93
2022-11-17T06:05:05.980Z,27.67
2022-11-17T06:07:35.802Z,33.70
2022-11-17T06:10:03.085Z,30.67
2022-11-17T06:12:29.964Z,28.60
2022-11-17T06:14:56.824Z,35.17
2022-11-17T06:17:57.896Z,30.13
2022-11-17T06:20:44.233Z,33.20
2022-11-17T06:23:12.046Z,31.60
2022-11-17T06:25:40.061Z,34.80
2022-11-17T06:28:14.924Z,31.60
2022-11-17T06:30:43.538Z,46.03
2022-11-17T06:33:15.348Z,38.33
2022-11-17T06:35:47.781Z,33.50
2022-11-17T06:38:14.661Z,35.13
2022-11-17T06:40:42.137Z,33.77
2022-11-17T06:43:11.733Z,36.17
2022-11-17T06:45:47.092Z,32.63
2022-11-17T06:48:18.077Z,39.43
2022-11-17T06:50:48.179Z,40.03
2022-11-17T06:53:15.106Z,38.30
2022-11-17T06:55:42.126Z,37.10
2022-11-17T06:58:11.554Z,34.13
2022-11-17T07:00:38.835Z,35.93
2022-11-17T07:03:10.653Z,37.00
2022-11-17T07:05:40.204Z,32.93
2022-11-17T07:08:08.898Z,29.50
2022-11-17T07:10:37.121Z,30.27
2022-11-17T07:13:04.182Z,36.07
2022-11-17T07:15:31.853Z,29.57
2022-11-17T07:17:58.786Z,33.70
2022-11-17T07:20:25.773Z,27.23
2022-11-17T07:22:58.874Z,32.80
2022-11-17T07:25:25.788Z,33.40
2022-11-17T07:28:00.409Z,30.33
2022-11-17T07:30:27.632Z,26.03
2022-11-17T07:32:55.100Z,27.47
2022-11-17T07:35:22.189Z,38.30
2022-11-17T07:37:49.137Z,26.73
2022-11-17T07:40:16.147Z,28.53
2022-11-17T07:42:49.522Z,26.40
2022-11-17T07:45:16.654Z,19.60
2022-11-17T07:47:43.540Z,26.23
2022-11-17T07:50:10.513Z,22.83
2022-11-17T07:52:41.401Z,23.93
2022-11-17T07:55:09.026Z,23.50
2022-11-17T07:57:36.249Z,24.73
2022-11-17T08:00:04.256Z,20.40
2022-11-17T08:02:31.193Z,20.80
2022-11-17T08:04:58.090Z,18.40
2022-11-17T08:07:25.128Z,24.73
2022-11-17T08:09:52.473Z,16.60
2022-11-17T08:12:19.418Z,23.80
2022-11-17T08:14:46.321Z,21.20
2022-11-17T08:17:13.222Z,15.90
2022-11-17T08:19:40.171Z,20.13
2022-11-17T08:22:07.202Z,24.77
2022-11-17T08:24:34.091Z,18.77
2022-11-17T08:27:01.181Z,22.50
2022-11-17T08:29:28.120Z,18.27
2022-11-17T08:31:55.091Z,21.07
2022-11-17T08:34:22.042Z,20.50
2022-11-17T08:36:49.005Z,19.00
2022-11-17T08:39:15.903Z,22.47
2022-11-17T08:41:42.802Z,22.77
2022-11-17T08:44:09.750Z,25.53
2022-11-17T08:46:40.253Z,24.00
2022-11-17T08:49:07.143Z,21.80
2022-11-17T08:51:34.072Z,21.50
2022-11-17T08:54:01.161Z,17.57
2022-11-17T08:56:28.176Z,17.23
2022-11-17T08:58:55.186Z,16.23
2022-11-17T09:03:49.162Z,14.97
2022-11-17T09:06:17.947Z,14.10
2022-11-17T09:08:46.982Z,12.90
2022-11-17T09:11:15.475Z,11.80
2022-11-17T09:13:42.700Z,13.30
2022-11-17T09:16:12.169Z,12.47
2022-11-17T09:18:41.544Z,12.27
2022-11-17T09:21:15.010Z,9.60
2022-11-17T09:23:42.812Z,12.90
2022-11-17T09:26:14.242Z,10.10
2022-11-17T09:28:42.553Z,10.37
2022-11-17T09:31:19.166Z,9.37
2022-11-17T09:33:46.761Z,10.17
2022-11-17T09:36:16.461Z,7.73
2022-11-17T09:38:45.137Z,8.20
2022-11-17T09:41:44.855Z,8.23
2022-11-17T09:44:47.811Z,11.10
2022-11-17T09:47:49.058Z,8.97
2022-11-17T09:50:36.472Z,9.33
2022-11-17T09:53:50.755Z,7.87
2022-11-17T09:56:17.947Z,9.83
2022-11-17T09:58:59.370Z,9.00
2022-11-17T10:01:29.197Z,8.70
2022-11-17T10:03:59.088Z,12.17
2022-11-17T10:06:30.787Z,10.13
2022-11-17T10:09:36.467Z,8.50
2022-11-17T10:12:20.300Z,8.83
2022-11-17T10:14:50.035Z,8.80
2022-11-17T10:17:17.733Z,11.97
2022-11-17T10:19:45.300Z,7.20
2022-11-17T10:22:27.996Z,7.83
2022-11-17T10:24:55.479Z,7.93
2022-11-17T10:27:34.275Z,7.37
2022-11-17T10:30:24.421Z,12.30
2022-11-17T10:32:55.453Z,8.53
2022-11-17T10:35:35.480Z,8.17
2022-11-17T10:38:20.719Z,6.83
2022-11-17T10:40:53.237Z,9.33
2022-11-17T10:43:30.240Z,6.90
2022-11-17T10:46:14.185Z,6.17
2022-11-17T10:49:05.006Z,5.97
2022-11-17T10:51:34.616Z,5.30
2022-11-17T10:54:06.777Z,5.27
2022-11-17T10:56:55.781Z,5.07
2022-11-17T10:59:58.585Z,6.00
2022-11-17T11:02:39.381Z,5.70
2022-11-17T11:05:15.493Z,4.97
2022-11-17T11:07:43.775Z,4.73
2022-11-17T11:10:26.265Z,4.17
2022-11-17T11:13:01.973Z,4.70
2022-11-17T11:15:36.113Z,5.83
2022-11-17T11:18:18.737Z,5.50
2022-11-17T11:21:21.998Z,6.70
2022-11-17T11:24:15.730Z,6.07
2022-11-17T11:27:45.344Z,5.97
2022-11-17T11:30:17.320Z,5.97
2022-11-17T11:33:41.097Z,5.53
2022-11-17T11:36:52.326Z,4.77
2022-11-17T11:40:07.697Z,4.53
2022-11-17T11:42:50.642Z,4.87
2022-11-17T11:46:32.354Z,4.37
2022-11-17T11:49:45.658Z,5.67
2022-11-17T11:52:22.797Z,4.73
2022-11-17T11:55:03.833Z,4.27
2022-11-17T11:57:55.007Z,4.73
2022-11-17T12:00:22.342Z,4.30
2022-11-17T12:03:10.801Z,4.80
2022-11-17T12:06:40.351Z,6.50
2022-11-17T12:09:31.553Z,4.40
2022-11-17T12:12:00.518Z,4.33
2022-11-17T12:14:38.182Z,4.17
2022-11-17T12:17:12.476Z,3.80
2022-11-17T12:20:07.613Z,5.10
2022-11-17T12:22:37.363Z,6.40
2022-11-17T12:25:34.233Z,2.73
2022-11-17T12:28:40.369Z,2.87
2022-11-17T12:31:42.427Z,3.47
2022-11-17T12:34:35.805Z,3.23
2022-11-17T12:37:26.303Z,2.83
2022-11-17T12:40:04.361Z,3.13
2022-11-17T12:42:35.147Z,3.33
2022-11-17T12:45:06.761Z,2.77
2022-11-17T12:47:59.189Z,2.77
2022-11-17T12:51:16.782Z,2.83
2022-11-17T12:54:28.043Z,2.90
2022-11-17T12:57:15.354Z,2.50
2022-11-17T13:00:15.220Z,5.40
2022-11-17T13:03:25.167Z,2.47
2022-11-17T13:06:35.396Z,2.60
2022-11-17T13:09:12.300Z,2.80
2022-11-17T13:11:39.355Z,2.30
2022-11-17T13:14:17.666Z,2.07
2022-11-17T13:16:51.492Z,2.60
2022-11-17T13:19:34.325Z,2.60
2022-11-17T13:22:18.616Z,2.00
2022-11-17T13:24:50.452Z,3.50
2022-11-17T13:27:32.685Z,2.27
2022-11-17T13:30:27.647Z,4.50
2022-11-17T13:32:57.130Z,1.73
2022-11-17T13:35:35.812Z,1.70
2022-11-17T13:38:11.354Z,3.30
2022-11-17T13:40:42.313Z,2.80
2022-11-17T13:43:20.682Z,1.70
2022-11-17T13:45:50.358Z,3.20
2022-11-17T13:48:45.946Z,2.00
2022-11-17T13:51:38.802Z,5.83
2022-11-17T13:54:11.855Z,2.97
2022-11-17T13:57:07.865Z,5.90
2022-11-17T13:59:39.154Z,2.03
2022-11-17T14:02:20.860Z,3.93
2022-11-17T14:05:09.707Z,1.90
2022-11-17T14:07:39.892Z,2.60
2022-11-17T14:10:22.273Z,2.23
2022-11-17T14:13:12.895Z,1.93
2022-11-17T14:15:42.876Z,4.30
2022-11-17T14:18:28.443Z,3.13
2022-11-17T14:21:10.225Z,1.20
2022-11-17T14:23:37.461Z,3.33
2022-11-17T14:26:06.108Z,1.37
2022-11-17T14:28:33.058Z,1.30
2022-11-17T14:30:59.978Z,2.47
2022-11-17T14:33:26.957Z,1.30
2022-11-17T14:35:59.917Z,2.00
2022-11-17T14:38:26.854Z,5.60
2022-11-17T14:40:54.230Z,1.20
2022-11-17T14:43:22.485Z,0.83
2022-11-17T14:45:50.770Z,3.53
2022-11-17T14:48:19.646Z,20.80
2022-11-17T14:50:48.206Z,6.87
2022-11-17T14:53:15.785Z,3.87
2022-11-17T14:55:42.650Z,5.87
2022-11-17T14:58:10.025Z,5.73
2022-11-17T15:00:37.131Z,3.13
2022-11-17T15:03:04.539Z,3.70
2022-11-17T15:05:32.113Z,3.53
2022-11-17T15:07:59.114Z,2.23
2022-11-17T15:10:26.146Z,3.60
2022-11-17T15:12:53.086Z,3.77
2022-11-17T15:15:20.097Z,2.83
2022-11-17T15:17:47.059Z,2.80
2022-11-17T15:20:14.007Z,4.83
2022-11-17T15:22:40.861Z,4.20
2022-11-17T15:25:09.117Z,5.00
2022-11-17T15:27:36.128Z,4.60
2022-11-17T15:30:04.459Z,4.87
2022-11-17T15:32:31.410Z,6.53
2022-11-17T15:34:58.270Z,5.47
2022-11-17T15:37:25.289Z,5.73
2022-11-17T15:39:52.223Z,5.13
2022-11-17T15:42:19.075Z,5.40
2022-11-17T15:44:45.998Z,6.93
2022-11-17T15:47:12.926Z,7.37
2022-11-17T15:49:39.835Z,4.70
2022-11-17T15:52:06.693Z,6.97
2022-11-17T15:54:33.555Z,6.30
2022-11-17T15:57:01.357Z,5.93
2022-11-17T15:59:28.234Z,4.87
2022-11-17T16:01:55.143Z,4.97
2022-11-17T16:04:22.091Z,4.13
2022-11-17T16:06:49.074Z,5.27
2022-11-17T16:09:16.948Z,6.90
2022-11-17T16:11:44.504Z,3.70
2022-11-17T16:14:11.733Z,5.00
2022-11-17T16:16:39.645Z,14.90
2022-11-17T16:19:07.215Z,11.07
2022-11-17T16:21:34.255Z,6.40
2022-11-17T16:24:02.162Z,6.57
2022-11-17T16:26:30.916Z,5.20
2022-11-17T16:29:06.230Z,4.73
2022-11-17T16:31:36.421Z,9.33
2022-11-17T16:34:17.843Z,3.80
2022-11-17T16:36:45.248Z,5.33
2022-11-17T16:39:17.806Z,3.97
2022-11-17T16:41:46.581Z,5.90
2022-11-17T16:44:17.978Z,8.73
2022-11-17T16:46:49.571Z,5.10
2022-11-17T16:49:19.623Z,12.50
2022-11-17T16:51:53.762Z,7.23
2022-11-17T16:54:21.399Z,10.27
2022-11-17T16:56:48.760Z,10.63
2022-11-17T16:59:16.560Z,8.73
2022-11-17T17:01:43.856Z,8.40
2022-11-17T17:04:12.246Z,9.70
2022-11-17T17:06:43.308Z,18.70
2022-11-17T17:09:14.412Z,10.90
2022-11-17T17:11:42.210Z,10.10
2022-11-17T17:14:14.702Z,7.90
2022-11-17T17:16:42.961Z,6.97
2022-11-17T17:19:14.512Z,5.43
2022-11-17T17:21:44.086Z,6.97
2022-11-17T17:24:11.806Z,5.77
2022-11-17T17:26:40.155Z,8.70
2022-11-17T17:29:08.854Z,4.63
2022-11-17T17:31:41.194Z,8.63
2022-11-17T17:34:11.399Z,16.30
2022-11-17T17:36:38.669Z,8.97
2022-11-17T17:39:07.159Z,4.80
2022-11-17T17:41:39.645Z,5.97
2022-11-17T17:44:08.690Z,5.90
2022-11-17T17:46:38.763Z,13.03
2022-11-17T17:49:07.053Z,4.60
2022-11-17T17:51:40.082Z,7.17
2022-11-17T17:54:10.112Z,6.57
2022-11-17T17:56:37.015Z,8.87
2022-11-17T17:59:03.891Z,10.77
2022-11-17T18:01:37.251Z,12.37
2022-11-17T18:04:05.041Z,12.27
2022-11-17T18:06:45.840Z,9.37
2022-11-17T18:09:15.285Z,8.63
2022-11-17T18:11:46.028Z,11.13
2022-11-17T18:14:13.663Z,13.17
2022-11-17T18:16:41.108Z,8.80
2022-11-17T18:19:15.132Z,7.73
2022-11-17T18:21:43.562Z,6.83
2022-11-17T18:24:12.554Z,8.03
2022-11-17T18:26:41.029Z,7.10
2022-11-17T18:29:16.085Z,8.70
2022-11-17T18:31:46.494Z,7.83
2022-11-17T18:34:23.732Z,8.00
2022-11-17T18:36:55.635Z,5.60
2022-11-17T18:39:23.451Z,5.40
2022-11-17T18:41:50.456Z,6.60
2022-11-17T18:44:19.611Z,7.70
2022-11-17T18:46:47.103Z,5.00
2022-11-17T18:49:14.604Z,5.47
2022-11-17T18:51:41.894Z,10.63
2022-11-17T18:54:12.364Z,5.93
2022-11-17T18:56:39.945Z,5.60
2022-11-17T18:59:11.441Z,13.63
2022-11-17T19:01:43.339Z,6.03
2022-11-17T19:04:14.494Z,6.50
2022-11-17T19:06:41.812Z,13.13
2022-11-17T19:09:09.338Z,9.57
2022-11-17T19:11:36.491Z,5.20
2022-11-17T19:14:05.209Z,7.00
2022-11-17T19:16:33.288Z,4.87
2022-11-17T19:19:00.396Z,6.47
2022-11-17T19:21:33.567Z,4.73
2022-11-17T19:24:04.560Z,7.33
2022-11-17T19:26:35.963Z,9.87
2022-11-17T19:29:16.659Z,8.10
2022-11-17T19:31:46.404Z,8.47
2022-11-17T19:34:16.749Z,9.00
2022-11-17T19:36:44.811Z,13.00
2022-11-17T19:39:13.030Z,9.77
2022-11-17T19:41:40.077Z,15.33
2022-11-17T19:44:08.870Z,13.30
2022-11-17T19:46:36.705Z,11.20
2022-11-17T19:49:07.413Z,11.23
2022-11-17T19:51:37.323Z,11.37
2022-11-17T19:54:09.046Z,9.90
2022-11-17T19:56:36.968Z,8.67
2022-11-17T19:59:04.623Z,10.07
2022-11-17T20:01:33.188Z,12.50
2022-11-17T20:04:02.060Z,14.73
2022-11-17T20:06:38.285Z,12.17
2022-11-17T20:09:14.083Z,19.43
2022-11-17T20:11:42.032Z,9.90
2022-11-17T20:14:09.180Z,19.30
2022-11-17T20:16:38.521Z,10.23
2022-11-17T20:19:05.441Z,10.20
2022-11-17T20:21:32.423Z,12.03
2022-11-17T20:24:01.085Z,11.20
2022-11-17T20:26:33.046Z,10.10
2022-11-17T20:29:01.020Z,8.70
2022-11-17T20:31:33.234Z,15.50
2022-11-17T20:34:03.535Z,15.30
2022-11-17T20:36:34.154Z,16.53
2022-11-17T20:39:06.297Z,12.10
2022-11-17T20:41:34.100Z,12.23
2022-11-17T20:44:03.103Z,20.47
2022-11-17T20:46:30.219Z,21.23
2022-11-17T20:48:57.259Z,19.30
2022-11-17T20:51:25.802Z,17.70
2022-11-17T20:53:53.298Z,11.07
2022-11-17T20:56:21.053Z,8.30
2022-11-17T20:58:48.389Z,8.90
2022-11-17T21:01:23.659Z,11.87
2022-11-17T21:03:50.650Z,12.50
2022-11-17T21:06:22.759Z,10.53
2022-11-17T21:08:49.938Z,10.83
2022-11-17T21:11:40.641Z,11.40
2022-11-17T21:14:12.398Z,13.93
2022-11-17T21:16:45.430Z,10.00
2022-11-17T21:19:14.614Z,6.93
2022-11-17T21:21:43.550Z,6.40
2022-11-17T21:24:11.315Z,7.90
2022-11-17T21:26:38.248Z,8.83
2022-11-17T21:29:06.876Z,11.93
2022-11-17T21:31:35.027Z,11.40
2022-11-17T21:34:08.596Z,13.40
2022-11-17T21:36:36.047Z,12.47
2022-11-17T21:39:04.209Z,12.80
2022-11-17T21:41:38.404Z,13.03
2022-11-17T21:44:05.492Z,11.43
2022-11-17T21:46:35.158Z,11.50
2022-11-17T21:49:02.211Z,9.30
2022-11-17T21:51:33.236Z,11.57
2022-11-17T21:54:04.278Z,10.27
2022-11-17T21:56:32.027Z,10.50
2022-11-17T21:59:04.543Z,13.57
2022-11-17T22:01:33.547Z,11.70
2022-11-17T22:04:01.031Z,9.50
2022-11-17T22:06:29.411Z,8.53
2022-11-17T22:08:59.078Z,9.10
2022-11-17T22:11:37.315Z,4.73
2022-11-17T22:14:17.831Z,6.33
2022-11-17T22:16:47.810Z,10.03
2022-11-17T22:19:17.626Z,6.40
2022-11-17T22:21:49.120Z,11.23
2022-11-17T22:24:16.397Z,5.50
2022-11-17T22:26:45.206Z,6.43
2022-11-17T22:29:21.147Z,8.23
2022-11-17T22:31:49.972Z,6.20
2022-11-17T22:34:18.202Z,11.87
2022-11-17T22:36:45.480Z,14.10
2022-11-17T22:39:12.358Z,15.83
2022-11-17T22:41:39.430Z,14.43
2022-11-17T22:44:06.625Z,11.77
2022-11-17T22:46:35.496Z,18.73
2022-11-17T22:49:03.129Z,16.30
2022-11-17T22:51:48.573Z,19.10
2022-11-17T22:54:15.645Z,15.33
2022-11-17T22:56:42.872Z,13.80
2022-11-17T22:59:10.183Z,16.37
2022-11-17T23:01:37.543Z,11.83
2022-11-17T23:04:06.525Z,12.13
2022-11-17T23:06:33.472Z,12.73
2022-11-17T23:09:00.522Z,16.90
2022-11-17T23:11:43.407Z,9.83
2022-11-17T23:14:13.761Z,12.60
2022-11-17T23:16:42.106Z,15.53
2022-11-17T23:19:13.809Z,10.57
2022-11-17T23:21:41.368Z,11.73
2022-11-17T23:24:14.398Z,13.43
2022-11-17T23:26:42.635Z,13.53
2022-11-17T23:29:09.942Z,13.87
2022-11-17T23:31:36.974Z,18.10
2022-11-17T23:34:04.009Z,13.93
2022-11-17T23:36:31.156Z,14.90
2022-11-17T23:38:58.054Z,13.67
2022-11-17T23:41:25.298Z,15.33
2022-11-17T23:43:54.471Z,13.40
2022-11-17T23:46:25.713Z,16.40
2022-11-17T23:48:56.154Z,14.13
2022-11-17T23:51:26.688Z,14.57
2022-11-17T23:53:53.762Z,11.50
2022-11-17T23:56:21.714Z,13.80
2022-11-17T23:58:50.280Z,15.97
